Time;durP1;ratioP1;P1;durP2;ratioP2;P2;SDS_P1;SDS_P2;PMS_P1;PMS_P2;Temp;Humidity;BMP_temperature;BMP_pressure;BME280_temperature;BME280_humidity;BME280_pressure;Samples;Min_cycle;Max_cycle;Signal;HPM_P1;HPM_P2
2021/05/24 00:01:30;;;;;;;1999.90;999.90;;;;;;;;;;5052796;28;20537;-76
2021/05/24 00:03:56;;;;;;;1999.90;999.90;;;10.50;99.90;;;;;;5054090;28;20197;-76
2021/05/24 00:06:22;;;;;;;1999.90;999.90;;;10.50;99.90;;;;;;5054152;28;20669;-76
2021/05/24 00:08:47;;;;;;;1999.90;999.90;;;10.50;99.90;;;;;;5054113;28;20182;-76
2021/05/24 00:11:13;;;;;;;1999.90;999.90;;;10.40;99.90;;;;;;5053952;28;20193;-77
2021/05/24 00:13:53;;;;;;;1999.90;999.90;;;10.40;99.90;;;;;;5051060;28;20229;-76
2021/05/24 00:16:19;;;;;;;1999.90;999.90;;;10.80;99.90;;;;;;5054326;28;20201;-76
2021/05/24 00:18:50;;;;;;;1999.90;999.90;;;10.40;99.90;;;;;;5053951;28;20652;-77
2021/05/24 00:21:16;;;;;;;1999.90;999.90;;;10.50;99.90;;;;;;5053795;28;20189;-76
2021/05/24 00:23:41;;;;;;;1999.90;999.90;;;10.40;99.90;;;;;;5053737;28;20324;-76
2021/05/24 00:26:07;;;;;;;1999.90;999.90;;;10.50;99.90;;;;;;5053668;28;20712;-76
2021/05/24 00:28:33;;;;;;;1999.90;999.90;;;10.40;99.90;;;;;;5053829;28;20525;-76
2021/05/24 00:30:58;;;;;;;1999.90;999.90;;;10.40;99.90;;;;;;5053663;28;20268;-76
2021/05/24 00:33:24;;;;;;;1999.90;999.90;;;10.50;99.90;;;;;;5053677;28;20232;-76
2021/05/24 00:35:50;;;;;;;1999.90;999.90;;;10.30;99.90;;;;;;5045849;28;20590;-77
2021/05/24 00:38:15;;;;;;;1999.90;999.90;;;10.40;99.90;;;;;;5052714;28;20616;-76
2021/05/24 00:40:42;;;;;;;1999.90;999.90;;;10.40;99.90;;;;;;5053464;28;20189;-77
2021/05/24 00:43:09;;;;;;;1999.90;999.90;;;10.50;99.90;;;;;;5053847;28;20277;-77
2021/05/24 00:45:35;;;;;;;1999.90;999.90;;;10.30;99.90;;;;;;5053635;28;20204;-77
2021/05/24 00:48:02;;;;;;;1999.90;999.90;;;10.30;99.90;;;;;;5053389;28;20252;-77
2021/05/24 00:50:28;;;;;;;1999.90;999.90;;;10.40;99.90;;;;;;5053361;28;20276;-76
2021/05/24 00:52:54;;;;;;;1999.90;999.90;;;10.30;99.90;;;;;;5053306;28;20606;-76
2021/05/24 00:55:19;;;;;;;1999.90;999.90;;;10.40;99.90;;;;;;5050900;28;20180;-77
2021/05/24 00:57:45;;;;;;;1999.90;999.90;;;;;;;;;;5054476;28;20174;-76
2021/05/24 01:00:44;;;;;;;1999.90;999.90;;;10.10;99.90;;;;;;5053315;28;20269;-75
2021/05/24 01:03:12;;;;;;;1999.90;999.90;;;10.00;99.90;;;;;;5063124;28;20213;-76
2021/05/24 01:05:39;;;;;;;1999.90;999.90;;;10.00;99.90;;;;;;5052899;28;20600;-76
2021/05/24 01:08:05;;;;;;;1999.90;999.90;;;10.10;99.90;;;;;;5053041;28;20186;-76
2021/05/24 01:10:32;;;;;;;1999.90;999.90;;;10.00;99.90;;;;;;5052971;28;20323;-76
2021/05/24 01:12:59;;;;;;;1999.90;999.90;;;10.00;99.90;;;;;;5052903;28;20199;-75
2021/05/24 01:15:25;;;;;;;1999.90;999.90;;;10.00;99.90;;;;;;5052918;28;20708;-75
2021/05/24 01:17:54;;;;;;;1999.90;999.90;;;10.10;99.90;;;;;;5052769;28;20191;-75
2021/05/24 01:20:19;;;;;;;1999.90;999.90;;;10.10;99.90;;;;;;5051495;28;20236;-76
2021/05/24 01:22:54;;;;;;;1999.90;999.90;;;10.10;99.90;;;;;;5052424;28;20216;-75
2021/05/24 01:25:20;;;;;;;1999.90;999.90;;;10.00;99.90;;;;;;5052662;28;20283;-76
2021/05/24 01:27:46;;;;;;;1999.90;999.90;;;10.10;99.90;;;;;;5052580;28;20264;-77
2021/05/24 01:30:13;;;;;;;1999.90;999.90;;;10.10;99.90;;;;;;5051230;28;20649;-76
2021/05/24 01:32:39;;;;;;;1999.90;999.90;;;10.10;99.90;;;;;;5052382;28;20304;-75
2021/05/24 01:35:05;;;;;;;1999.90;999.90;;;10.10;99.90;;;;;;5051056;28;20267;-76
2021/05/24 01:37:31;;;;;;;1999.90;999.90;;;10.10;99.90;;;;;;5053163;28;20653;-76
2021/05/24 01:39:59;;;;;;;1999.90;999.90;;;10.10;99.90;;;;;;5049521;28;20184;-76
2021/05/24 01:42:25;;;;;;;1999.90;999.90;;;10.10;99.90;;;;;;5043706;28;20185;-77
2021/05/24 01:44:50;;;;;;;1999.90;999.90;;;10.10;99.90;;;;;;5052230;28;20602;-76
2021/05/24 01:47:16;;;;;;;1999.90;999.90;;;10.10;99.90;;;;;;5052329;28;20186;-76
2021/05/24 01:49:47;;;;;;;1999.90;999.90;;;10.00;99.90;;;;;;5052628;28;20242;-76
2021/05/24 01:52:17;;;;;;;1999.90;999.90;;;10.00;99.90;;;;;;5053206;28;20208;-77
2021/05/24 01:54:44;;;;;;;1999.90;999.90;;;9.90;99.90;;;;;;5049389;28;20182;-76
2021/05/24 01:57:10;;;;;;;1999.90;999.90;;;9.80;99.90;;;;;;5039267;28;20192;-77
2021/05/24 01:59:37;;;;;;;1999.90;999.90;;;9.90;99.90;;;;;;5049805;28;20179;-77
2021/05/24 02:02:04;;;;;;;1999.90;999.90;;;9.80;99.90;;;;;;5049873;28;20687;-76
2021/05/24 02:04:30;;;;;;;1999.90;999.90;;;9.80;99.90;;;;;;5049626;28;20199;-76
2021/05/24 02:06:57;;;;;;;1999.90;999.90;;;9.80;99.90;;;;;;5050752;28;20259;-77
2021/05/24 02:09:23;;;;;;;1999.90;999.90;;;9.70;99.90;;;;;;5051541;28;20283;-76
2021/05/24 02:11:49;;;;;;;1999.90;999.90;;;9.60;99.90;;;;;;5049517;28;20229;-77
2021/05/24 02:14:15;;;;;;;1999.90;999.90;;;9.60;99.90;;;;;;5051405;28;20220;-76
2021/05/24 02:16:49;;;;;;;1999.90;999.90;;;9.60;99.90;;;;;;5051533;28;20179;-76
2021/05/24 02:19:16;;;;;;;1999.90;999.90;;;9.70;99.90;;;;;;5050372;28;20184;-77
2021/05/24 02:21:42;;;;;;;1999.90;999.90;;;9.60;99.90;;;;;;5040258;28;20230;-77
2021/05/24 02:24:09;;;;;;;1999.90;999.90;;;9.60;99.90;;;;;;5051071;28;20222;-77
2021/05/24 02:26:36;;;;;;;1999.90;999.90;;;9.50;99.90;;;;;;5051336;28;20562;-75
2021/05/24 02:29:03;;;;;;;1999.90;999.90;;;9.50;99.90;;;;;;5051287;28;20240;-77
2021/05/24 02:31:29;;;;;;;1999.90;999.90;;;9.50;99.90;;;;;;5051199;28;20229;-76
2021/05/24 02:33:55;;;;;;;1999.90;999.90;;;9.40;99.90;;;;;;5051149;28;20278;-76
2021/05/24 02:36:23;;;;;;;1999.90;999.90;;;9.40;99.90;;;;;;5041046;28;20177;-75
2021/05/24 02:38:49;;;;;;;1999.90;999.90;;;9.40;99.90;;;;;;5051120;28;20660;-76
2021/05/24 02:41:15;;;;;;;1999.90;999.90;;;9.30;99.90;;;;;;5050970;28;20188;-76
2021/05/24 02:43:40;;;;;;;1999.90;999.90;;;9.30;99.90;;;;;;5051783;28;20204;-77
2021/05/24 02:46:06;;;;;;;1999.90;999.90;;;9.30;99.90;;;;;;5051083;28;20200;-77
2021/05/24 02:48:32;;;;;;;1999.90;999.90;;;9.30;99.90;;;;;;5052314;28;20172;-77
2021/05/24 02:50:58;;;;;;;1999.90;999.90;;;9.20;99.90;;;;;;5051749;28;20631;-76
2021/05/24 02:53:24;;;;;;;1999.90;999.90;;;9.30;99.90;;;;;;5050886;28;20211;-76
2021/05/24 02:55:49;;;;;;;1999.90;999.90;;;9.30;99.90;;;;;;5050802;28;20289;-76
2021/05/24 02:58:15;;;;;;;1999.90;999.90;;;9.20;99.90;;;;;;5050799;28;20237;-76
2021/05/24 03:00:40;;;;;;;1999.90;999.90;;;9.20;99.90;;;;;;5050717;28;20176;-75
2021/05/24 03:03:08;;;;;;;1999.90;999.90;;;9.20;99.90;;;;;;5050963;28;20317;-76
2021/05/24 03:05:34;;;;;;;1999.90;999.90;;;9.10;99.90;;;;;;5050761;28;20581;-75
2021/05/24 03:08:01;;;;;;;1999.90;999.90;;;9.10;99.90;;;;;;5050656;28;20204;-76
2021/05/24 03:10:26;;;;;;;1999.90;999.90;;;9.20;99.90;;;;;;5049291;28;20211;-77
2021/05/24 03:12:53;;;;;;;1999.90;999.90;;;9.20;99.90;;;;;;5050603;28;20197;-76
2021/05/24 03:15:20;;;;;;;1999.90;999.90;;;9.10;99.90;;;;;;5049394;28;20193;-77
2021/05/24 03:17:46;;;;;;;1999.90;999.90;;;9.10;99.90;;;;;;5050060;28;20259;-75
2021/05/24 03:20:14;;;;;;;1999.90;999.90;;;9.10;99.90;;;;;;5049101;28;20175;-76
2021/05/24 03:22:40;;;;;;;1999.90;999.90;;;9.10;99.90;;;;;;5050211;28;20219;-76
2021/05/24 03:25:07;;;;;;;1999.90;999.90;;;9.10;99.90;;;;;;5050490;28;20257;-76
2021/05/24 03:27:33;;;;;;;1999.90;999.90;;;9.10;99.90;;;;;;5050370;28;20700;-77
2021/05/24 03:29:59;;;;;;;1999.90;999.90;;;9.00;99.90;;;;;;5050457;28;20173;-76
2021/05/24 03:32:25;;;;;;;1999.90;999.90;;;9.10;99.90;;;;;;5050391;28;20283;-77
2021/05/24 03:34:50;;;;;;;1999.90;999.90;;;9.00;99.90;;;;;;5049803;28;20638;-75
2021/05/24 03:37:16;;;;;;;1999.90;999.90;;;8.90;99.90;;;;;;5040355;28;20659;-77
2021/05/24 03:39:42;;;;;;;1999.90;999.90;;;8.80;99.90;;;;;;5050320;28;20208;-75
2021/05/24 03:42:08;;;;;;;1999.90;999.90;;;8.90;99.90;;;;;;5078831;23;20180;-75
2021/05/24 03:44:35;;;;;;;1999.90;999.90;;;8.90;99.90;;;;;;5075975;28;20693;-77
2021/05/24 03:47:01;;;;;;;1999.90;999.90;;;9.00;99.90;;;;;;5070427;28;20178;-77
2021/05/24 03:49:26;;;;;;;1999.90;999.90;;;8.90;99.90;;;;;;5053238;28;20183;-78
2021/05/24 03:51:52;;;;;;;1999.90;999.90;;;8.90;99.90;;;;;;5070370;28;20171;-78
2021/05/24 03:54:17;;;;;;;1999.90;999.90;;;8.90;99.90;;;;;;5070510;28;20180;-78
2021/05/24 03:56:43;;;;;;;1999.90;999.90;;;8.90;99.90;;;;;;5070495;28;20188;-77
2021/05/24 03:59:09;;;;;;;1999.90;999.90;;;8.90;99.90;;;;;;5070393;28;20684;-77
2021/05/24 04:01:37;;;;;;;1999.90;999.90;;;8.90;99.90;;;;;;5063290;28;20597;-77
2021/05/24 04:04:05;;;;;;;1999.90;999.90;;;8.80;99.90;;;;;;5054219;28;20224;-77
2021/05/24 04:06:31;;;;;;;1999.90;999.90;;;8.90;99.90;;;;;;5067608;28;20285;-77
2021/05/24 04:08:57;;;;;;;1999.90;999.90;;;8.90;99.90;;;;;;5068303;28;20644;-78
2021/05/24 04:11:23;;;;;;;1999.90;999.90;;;8.90;99.90;;;;;;5069429;28;20170;-77
2021/05/24 04:13:54;;;;;;;1999.90;999.90;;;8.80;99.90;;;;;;5070310;28;20200;-77
2021/05/24 04:16:20;;;;;;;1999.90;999.90;;;8.90;99.90;;;;;;5069896;28;20184;-77
2021/05/24 04:18:48;;;;;;;1999.90;999.90;;;8.80;99.90;;;;;;5067103;28;20177;-77
2021/05/24 04:21:15;;;;;;;1999.90;999.90;;;8.80;99.90;;;;;;5045688;28;20191;-78
2021/05/24 04:23:42;;;;;;;1999.90;999.90;;;8.80;99.90;;;;;;5057628;28;20235;-79
2021/05/24 04:26:08;;;;;;;1999.90;999.90;;;8.80;99.90;;;;;;5043168;28;20201;-78
2021/05/24 04:28:35;;;;;;;1999.90;999.90;;;8.70;99.90;;;;;;5063892;28;20180;-78
2021/05/24 04:31:01;;;;;;;1999.90;999.90;;;8.70;99.90;;;;;;5064477;28;20177;-78
2021/05/24 04:33:27;;;;;;;1999.90;999.90;;;8.70;99.90;;;;;;5061815;28;20793;-77
2021/05/24 04:35:52;;;;;;;1999.90;999.90;;;8.70;99.90;;;;;;5067174;28;20183;-77
2021/05/24 04:38:18;;;;;;;1999.90;999.90;;;8.70;99.90;;;;;;5070679;28;20553;-78
2021/05/24 04:40:44;;;;;;;1999.90;999.90;;;8.70;99.90;;;;;;5056042;28;20191;-77
2021/05/24 04:43:10;;;;;;;1999.90;999.90;;;8.70;99.90;;;;;;5038078;28;20226;-79
2021/05/24 04:45:36;;;;;;;1999.90;999.90;;;8.70;99.90;;;;;;5055030;28;20195;-77
2021/05/24 04:48:02;;;;;;;1999.90;999.90;;;8.70;99.90;;;;;;5055868;28;20177;-77
2021/05/24 04:50:27;;;;;;;1999.90;999.90;;;8.70;99.90;;;;;;5056398;28;20231;-77
2021/05/24 04:52:53;;;;;;;1999.90;999.90;;;8.70;99.90;;;;;;5053635;28;20200;-77
2021/05/24 04:55:20;;;;;;;1999.90;999.90;;;8.60;99.90;;;;;;5054501;28;20173;-77
2021/05/24 04:57:46;;;;;;;1999.90;999.90;;;8.60;99.90;;;;;;5052864;28;20208;-78
2021/05/24 05:00:13;;;;;;;1999.90;999.90;;;8.70;99.90;;;;;;5052698;28;20204;-77
2021/05/24 05:02:39;;;;;;;1999.90;999.90;;;8.70;99.90;;;;;;5067709;28;20203;-78
2021/05/24 05:05:07;;;;;;;1999.90;999.90;;;8.80;99.90;;;;;;5067464;28;20671;-78
2021/05/24 05:07:33;;;;;;;1999.90;999.90;;;8.80;99.90;;;;;;5072181;28;20179;-78
2021/05/24 05:10:01;;;;;;;1999.90;999.90;;;8.90;99.90;;;;;;5071861;28;20283;-78
2021/05/24 05:12:26;;;;;;;1999.90;999.90;;;8.90;99.90;;;;;;5072106;28;20203;-77
2021/05/24 05:14:53;;;;;;;1999.90;999.90;;;8.90;99.90;;;;;;5071900;28;20183;-78
2021/05/24 05:17:18;;;;;;;1999.90;999.90;;;8.90;99.90;;;;;;5072098;28;20183;-77
2021/05/24 05:19:44;;;;;;;1999.90;999.90;;;9.00;99.90;;;;;;5071622;28;20241;-79
2021/05/24 05:22:10;;;;;;;1999.90;999.90;;;9.10;99.90;;;;;;5053807;28;20180;-78
2021/05/24 05:24:36;;;;;;;1999.90;999.90;;;9.00;99.90;;;;;;5071489;28;20188;-78
2021/05/24 05:27:01;;;;;;;1999.90;999.90;;;9.00;99.90;;;;;;5043324;28;20220;-78
2021/05/24 05:29:27;;;;;;;1999.90;999.90;;;9.10;99.90;;;;;;5040089;28;20287;-77
2021/05/24 05:31:53;;;;;;;1999.90;999.90;;;9.10;99.90;;;;;;5058792;28;20183;-77
2021/05/24 05:34:19;;;;;;;1999.90;999.90;;;9.30;99.90;;;;;;5051131;28;20176;-78
2021/05/24 05:36:44;;;;;;;1999.90;999.90;;;9.30;99.90;;;;;;5069281;28;20184;-78
2021/05/24 05:39:10;;;;;;;1999.90;999.90;;;9.30;99.90;;;;;;5072069;28;20171;-77
2021/05/24 05:41:36;;;;;;;1999.90;999.90;;;9.40;99.90;;;;;;5071639;28;20539;-77
2021/05/24 05:44:04;;;;;;;1999.90;999.90;;;9.40;99.90;;;;;;5073204;28;20296;-78
2021/05/24 05:46:31;;;;;;;1999.90;999.90;;;9.40;99.90;;;;;;5072958;28;20203;-78
2021/05/24 05:48:56;;;;;;;1999.90;999.90;;;9.40;99.90;;;;;;5075458;28;20183;-77
2021/05/24 05:51:22;;;;;;;1999.90;999.90;;;9.30;99.90;;;;;;5070767;28;20179;-78
2021/05/24 05:53:48;;;;;;;1999.90;999.90;;;9.40;99.90;;;;;;5072233;28;20200;-78
2021/05/24 05:56:13;;;;;;;1999.90;999.90;;;9.40;99.90;;;;;;5071594;28;20574;-77
2021/05/24 05:58:39;;;;;;;1999.90;999.90;;;9.50;99.90;;;;;;5071954;28;20229;-78
2021/05/24 06:01:06;;;;;;;1999.90;999.90;;;9.50;99.90;;;;;;5053570;28;20977;-77
2021/05/24 06:03:33;;;;;;;1999.90;999.90;;;9.60;99.90;;;;;;5071873;28;20207;-77
2021/05/24 06:05:59;;;;;;;1999.90;999.90;;;9.60;99.90;;;;;;5071314;28;20226;-77
2021/05/24 06:08:24;;;;;;;1999.90;999.90;;;9.70;99.90;;;;;;5053827;28;20238;-77
2021/05/24 06:10:50;;;;;;;1999.90;999.90;;;9.70;99.90;;;;;;5071354;28;20655;-77
2021/05/24 06:13:16;;;;;;;1999.90;999.90;;;9.70;99.90;;;;;;5071650;28;20210;-77
2021/05/24 06:15:42;;;;;;;1999.90;999.90;;;9.80;99.90;;;;;;5073195;28;20184;-77
2021/05/24 06:18:07;;;;;;;1999.90;999.90;;;9.80;99.90;;;;;;5062404;28;20179;-76
2021/05/24 06:20:33;;;;;;;1999.90;999.90;;;9.90;99.90;;;;;;5054792;28;20187;-76
2021/05/24 06:22:58;;;;;;;1999.90;999.90;;;9.90;99.90;;;;;;5072697;28;20200;-77
2021/05/24 06:25:24;;;;;;;1999.90;999.90;;;10.00;99.90;;;;;;5070192;28;20250;-77
2021/05/24 06:27:50;;;;;;;1999.90;999.90;;;10.00;99.90;;;;;;5069793;28;20221;-77
2021/05/24 06:30:16;;;;;;;1999.90;999.90;;;10.00;99.90;;;;;;5039293;28;20187;-77
2021/05/24 06:32:42;;;;;;;1999.90;999.90;;;10.00;99.90;;;;;;5061337;28;20218;-76
2021/05/24 06:35:09;;;;;;;1999.90;999.90;;;10.10;99.90;;;;;;5054867;28;20180;-76
2021/05/24 06:37:35;;;;;;;1999.90;999.90;;;10.10;99.90;;;;;;5038364;28;20203;-77
2021/05/24 06:40:00;;;;;;;1999.90;999.90;;;10.20;99.90;;;;;;5054985;28;20217;-77
2021/05/24 06:42:26;;;;;;;1999.90;999.90;;;10.20;99.90;;;;;;5054818;28;20213;-76
2021/05/24 06:44:53;;;;;;;1999.90;999.90;;;10.20;99.90;;;;;;5055199;28;20176;-77
2021/05/24 06:47:19;;;;;;;1999.90;999.90;;;10.20;99.90;;;;;;5053264;28;20177;-77
2021/05/24 06:49:45;;;;;;;1999.90;999.90;;;10.20;99.90;;;;;;5066201;28;20175;-77
2021/05/24 06:52:11;;;;;;;1999.90;999.90;;;10.30;99.90;;;;;;5036588;28;20726;-77
2021/05/24 06:54:36;;;;;;;1999.90;999.90;;;10.30;99.90;;;;;;5060897;28;20183;-77
2021/05/24 06:57:04;;;;;;;1999.90;999.90;;;10.40;99.90;;;;;;5054414;28;20204;-76
2021/05/24 06:59:32;;;;;;;1999.90;999.90;;;10.40;99.90;;;;;;5071243;28;20176;-77
2021/05/24 07:01:59;;;;;;;1999.90;999.90;;;10.40;99.90;;;;;;5071271;28;20183;-76
2021/05/24 07:04:25;;;;;;;1999.90;999.90;;;10.50;99.90;;;;;;5063381;28;20182;-75
2021/05/24 07:06:52;;;;;;;1999.90;999.90;;;10.50;99.90;;;;;;5044897;28;20199;-77
2021/05/24 07:09:17;;;;;;;1999.90;999.90;;;10.50;99.90;;;;;;5070403;28;20645;-77
2021/05/24 07:11:44;;;;;;;1999.90;999.90;;;10.60;99.90;;;;;;5052167;28;20191;-77
2021/05/24 07:14:09;;;;;;;1999.90;999.90;;;10.60;99.90;;;;;;5051998;28;20200;-74
2021/05/24 07:16:35;;;;;;;1999.90;999.90;;;10.60;99.90;;;;;;5069197;28;20551;-77
2021/05/24 07:19:01;;;;;;;1999.90;999.90;;;10.60;99.90;;;;;;5069928;28;20214;-77
2021/05/24 07:21:27;;;;;;;1999.90;999.90;;;10.70;99.90;;;;;;5069301;28;20234;-77
2021/05/24 07:23:52;;;;;;;1999.90;999.90;;;10.70;99.90;;;;;;5069262;28;20206;-76
2021/05/24 07:26:18;;;;;;;1999.90;999.90;;;10.70;99.90;;;;;;5049192;28;20435;-77
2021/05/24 07:28:44;;;;;;;1999.90;999.90;;;10.70;99.90;;;;;;5051573;28;20893;-77
2021/05/24 07:31:09;;;;;;;1999.90;999.90;;;10.70;99.90;;;;;;5069586;28;20180;-77
2021/05/24 07:33:35;;;;;;;1999.90;999.90;;;10.70;99.90;;;;;;5069083;28;20196;-77
2021/05/24 07:36:01;;;;;;;1999.90;999.90;;;10.70;99.90;;;;;;5069548;28;20184;-77
2021/05/24 07:38:26;;;;;;;1999.90;999.90;;;10.70;99.90;;;;;;5068412;28;20265;-76
2021/05/24 07:40:52;;;;;;;1999.90;999.90;;;10.70;99.90;;;;;;5053062;28;20187;-77
2021/05/24 07:43:18;;;;;;;1999.90;999.90;;;10.80;99.90;;;;;;5068556;28;20302;-76
2021/05/24 07:45:44;;;;;;;1999.90;999.90;;;10.80;99.90;;;;;;5072576;28;20227;-75
2021/05/24 07:48:09;;;;;;;1999.90;999.90;;;10.80;99.90;;;;;;5053175;28;20661;-76
2021/05/24 07:50:35;;;;;;;1999.90;999.90;;;10.80;99.90;;;;;;5071030;28;20179;-76
2021/05/24 07:53:01;;;;;;;1999.90;999.90;;;10.80;99.90;;;;;;5053011;28;20237;-76
2021/05/24 07:55:27;;;;;;;1999.90;999.90;;;10.70;99.90;;;;;;5070921;28;20655;-77
2021/05/24 07:57:53;;;;;;;1999.90;999.90;;;10.70;99.90;;;;;;5052912;28;20184;-76
2021/05/24 08:00:20;;;;;;;1999.90;999.90;;;10.80;99.90;;;;;;5070538;28;20180;-75
2021/05/24 08:02:45;;;;;;;1999.90;999.90;;;10.80;99.90;;;;;;5051753;28;20286;-77
2021/05/24 08:05:14;;;;;;;1999.90;999.90;;;10.90;99.90;;;;;;5069302;28;20295;-76
2021/05/24 08:07:40;;;;;;;1999.90;999.90;;;10.80;99.90;;;;;;5067205;28;20180;-75
2021/05/24 08:10:09;;;;;;;1999.90;999.90;;;10.80;99.90;;;;;;5071250;28;20649;-76
2021/05/24 08:12:37;;;;;;;1999.90;999.90;;;10.70;99.90;;;;;;5075871;28;20269;-77
2021/05/24 08:15:16;;;;;;;1999.90;999.90;;;10.70;99.90;;;;;;5076123;28;20682;-75
2021/05/24 08:17:42;;;;;;;1999.90;999.90;;;10.80;99.90;;;;;;5045033;28;20189;-77
2021/05/24 08:20:09;;;;;;;1999.90;999.90;;;10.80;99.90;;;;;;5067160;28;20190;-76
2021/05/24 08:22:35;;;;;;;1999.90;999.90;;;10.80;99.90;;;;;;5075762;28;20680;-76
2021/05/24 08:25:01;;;;;;;1999.90;999.90;;;10.80;99.90;;;;;;5057796;28;20189;-76
2021/05/24 08:27:27;;;;;;;1999.90;999.90;;;10.80;99.90;;;;;;5075890;28;20187;-76
2021/05/24 08:29:52;;;;;;;1999.90;999.90;;;10.90;99.90;;;;;;5057563;28;20260;-76
2021/05/24 08:32:18;;;;;;;1999.90;999.90;;;10.90;99.90;;;;;;5060522;28;20202;-76
2021/05/24 08:34:44;;;;;;;1999.90;999.90;;;10.90;99.90;;;;;;5059090;28;20176;-76
2021/05/24 08:37:09;;;;;;;1999.90;999.90;;;10.90;99.90;;;;;;5045370;28;20222;-75
2021/05/24 08:39:35;;;;;;;1999.90;999.90;;;10.90;99.90;;;;;;5075818;28;20237;-76
2021/05/24 08:42:01;;;;;;;1999.90;999.90;;;11.00;99.90;;;;;;5075363;28;20249;-76
2021/05/24 08:44:27;;;;;;;1999.90;999.90;;;11.00;99.90;;;;;;5075867;28;20179;-75
2021/05/24 08:46:53;;;;;;;1999.90;999.90;;;11.00;99.90;;;;;;5075334;28;20682;-76
2021/05/24 08:49:19;;;;;;;1999.90;999.90;;;11.00;99.90;;;;;;5063694;28;20255;-76
2021/05/24 08:51:44;;;;;;;1999.90;999.90;;;11.00;99.90;;;;;;5071494;28;20208;-76
2021/05/24 08:54:10;;;;;;;1999.90;999.90;;;11.10;99.90;;;;;;5058406;28;20197;-75
2021/05/24 08:56:37;;;;;;;1999.90;999.90;;;11.00;99.90;;;;;;5054886;28;20192;-76
2021/05/24 08:59:03;;;;;;;1999.90;999.90;;;11.10;99.90;;;;;;5072490;28;20179;-76
2021/05/24 09:01:29;;;;;;;1999.90;999.90;;;11.10;99.90;;;;;;5070795;28;20188;-76
2021/05/24 09:04:03;;;;;;;1999.90;999.90;;;11.00;99.90;;;;;;5070692;28;20207;-75
2021/05/24 09:06:40;;;;;;;1999.90;999.90;;;11.10;99.90;;;;;;5072556;28;20205;-77
2021/05/24 09:09:13;;;;;;;1999.90;999.90;;;11.10;99.90;;;;;;5063934;28;20173;-76
2021/05/24 09:11:40;;;;;;;1999.90;999.90;;;11.00;99.90;;;;;;5057784;28;20184;-77
2021/05/24 09:14:12;;;;;;;1999.90;999.90;;;11.10;99.90;;;;;;5060848;28;20238;-78
2021/05/24 09:16:38;;;;;;;1999.90;999.90;;;11.10;99.90;;;;;;5069867;28;20172;-77
2021/05/24 09:19:19;;;;;;;1999.90;999.90;;;11.10;99.90;;;;;;5069065;28;20580;-77
2021/05/24 09:21:57;;;;;;;1999.90;999.90;;;11.20;99.90;;;;;;5067718;28;20267;-76
2021/05/24 09:24:40;;;;;;;1999.90;999.90;;;11.20;99.90;;;;;;5063097;28;20548;-76
2021/05/24 09:27:29;;;;;;;1999.90;999.90;;;11.20;99.90;;;;;;5072231;28;20185;-77
2021/05/24 09:29:58;;;;;;;1999.90;999.90;;;11.20;99.90;;;;;;5056441;28;20180;-77
2021/05/24 09:32:25;;;;;;;1999.90;999.90;;;11.30;99.90;;;;;;5067705;28;20697;-76
2021/05/24 09:34:52;;;;;;;1999.90;999.90;;;11.30;99.90;;;;;;5073091;28;20201;-77
2021/05/24 09:37:32;;;;;;;1999.90;999.90;;;11.30;99.90;;;;;;5071484;28;20173;-77
2021/05/24 09:39:58;;;;;;;1999.90;999.90;;;11.40;99.90;;;;;;5074226;28;20177;-76
2021/05/24 09:42:24;;;;;;;1999.90;999.90;;;11.40;99.90;;;;;;5056287;28;20212;-76
2021/05/24 09:44:52;;;;;;;1999.90;999.90;;;11.40;99.90;;;;;;5105112;22;20227;-76
2021/05/24 09:47:38;;;;;;;1999.90;999.90;;;11.40;99.90;;;;;;5074546;28;20613;-75
2021/05/24 09:50:18;;;;;;;1999.90;999.90;;;11.40;99.90;;;;;;5074252;28;20172;-75
2021/05/24 09:52:46;;;;;;;1999.90;999.90;;;11.40;99.90;;;;;;5076519;28;20171;-76
2021/05/24 09:55:23;;;;;;;1999.90;999.90;;;11.50;99.90;;;;;;5069396;28;20257;-76
2021/05/24 09:58:05;;;;;;;1999.90;999.90;;;11.50;99.90;;;;;;5054443;28;20548;-76
2021/05/24 10:00:41;;;;;;;1999.90;999.90;;;11.50;99.90;;;;;;5054167;28;20203;-76
2021/05/24 10:03:10;;;;;;;1999.90;999.90;;;11.50;99.90;;;;;;5074037;28;20737;-76
2021/05/24 10:05:39;;;;;;;1999.90;999.90;;;11.50;99.90;;;;;;5073878;28;20603;-76
2021/05/24 10:08:05;;;;;;;1999.90;999.90;;;11.60;99.90;;;;;;5056583;28;20168;-75
2021/05/24 10:10:31;;;;;;;1999.90;999.90;;;11.70;99.90;;;;;;5073981;28;20710;-76
2021/05/24 10:12:58;;;;;;;1999.90;999.90;;;11.70;99.90;;;;;;5073178;28;20214;-75
2021/05/24 10:15:24;;;;;;;1999.90;999.90;;;11.80;99.90;;;;;;5071334;28;20246;-76
2021/05/24 10:17:57;;;;;;;1999.90;999.90;;;11.90;99.90;;;;;;5070996;28;20177;-75
2021/05/24 10:20:23;;;;;;;1999.90;999.90;;;11.90;99.90;;;;;;5065441;28;20565;-75
2021/05/24 10:22:49;;;;;;;1999.90;999.90;;;12.00;99.90;;;;;;5072526;28;20177;-75
2021/05/24 10:25:15;;;;;;;1999.90;999.90;;;12.00;99.90;;;;;;5069758;28;20285;-76
2021/05/24 10:27:41;;;;;;;1999.90;999.90;;;12.00;99.90;;;;;;5048580;28;20178;-75
2021/05/24 10:30:08;;;;;;;1999.90;999.90;;;12.10;99.90;;;;;;5051574;28;20268;-76
2021/05/24 10:32:34;;;;;;;1999.90;999.90;;;12.10;99.90;;;;;;5055218;28;20268;-75
2021/05/24 10:35:00;;;;;;;1999.90;999.90;;;12.20;99.90;;;;;;5073395;28;20208;-75
2021/05/24 10:37:38;;;;;;;1999.90;999.90;;;12.20;99.90;;;;;;5077588;28;20183;-81
2021/05/24 10:40:07;;;;;;;1999.90;999.90;;;12.30;99.90;;;;;;5082413;28;20246;-81
2021/05/24 10:42:40;;;;;;;1999.90;999.90;;;12.40;99.90;;;;;;5082744;28;20546;-81
2021/05/24 10:45:20;;;;;;;1999.90;999.90;;;12.50;99.90;;;;;;5064738;28;20602;-82
2021/05/24 10:47:53;;;;;;;1999.90;999.90;;;12.50;99.90;;;;;;5083510;28;20173;-82
2021/05/24 10:50:20;;;;;;;1999.90;999.90;;;12.60;99.90;;;;;;5082619;28;20181;-81
2021/05/24 10:53:01;;;;;;;1999.90;999.90;;;12.70;99.90;;;;;;5082871;28;20203;-81
2021/05/24 10:55:26;;;;;;;1999.90;999.90;;;12.90;99.90;;;;;;5083227;28;20244;-81
2021/05/24 10:57:59;;;;;;;1999.90;999.90;;;12.90;99.90;;;;;;5065478;28;20208;-81
2021/05/24 11:00:26;;;;;;;1999.90;999.90;;;12.90;99.90;;;;;;5083285;28;20212;-82
2021/05/24 11:02:56;;;;;;;1999.90;999.90;;;13.10;99.90;;;;;;5057188;28;20252;-82
2021/05/24 11:05:31;;;;;;;1999.90;999.90;;;13.20;99.90;;;;;;5078625;28;20208;-81
2021/05/24 11:08:02;;;;;;;1999.90;999.90;;;13.30;99.90;;;;;;5065002;28;20558;-81
2021/05/24 11:10:34;;;;;;;1999.90;999.90;;;13.30;99.90;;;;;;5063381;28;20618;-83
2021/05/24 11:13:10;;;;;;;1999.90;999.90;;;13.40;99.90;;;;;;5082254;28;20176;-81
2021/05/24 11:15:43;;;;;;;1999.90;999.90;;;13.40;99.90;;;;;;5064411;28;20216;-82
2021/05/24 11:18:13;;;;;;;1999.90;999.90;;;13.40;99.90;;;;;;5082729;28;20177;-81
2021/05/24 11:20:53;;;;;;;1999.90;999.90;;;13.40;99.90;;;;;;5083146;28;20184;-81
2021/05/24 11:26:19;;;;;;;1999.90;999.90;;;13.40;99.90;;;;;;5082277;28;20196;-81
2021/05/24 11:28:50;;;;;;;1999.90;999.90;;;13.40;99.90;;;;;;5063457;28;20172;-82
2021/05/24 11:31:17;;;;;;;1999.90;999.90;;;13.50;99.90;;;;;;5080682;28;20169;-82
2021/05/24 11:33:54;;;;;;;1999.90;999.90;;;13.50;99.90;;;;;;5079979;28;20223;-81
2021/05/24 11:36:35;;;;;;;1999.90;999.90;;;13.50;99.90;;;;;;5058876;28;20682;-81
2021/05/24 11:39:20;;;;;;;1999.90;999.90;;;13.40;99.90;;;;;;5074480;28;20177;-81
2021/05/24 11:41:51;;;;;;;1999.90;999.90;;;13.50;99.90;;;;;;5079941;28;20196;-81
2021/05/24 11:44:17;;;;;;;1999.90;999.90;;;13.60;99.90;;;;;;5079796;28;20274;-81
2021/05/24 11:46:45;;;;;;;1999.90;999.90;;;13.60;99.90;;;;;;5079945;28;20199;-81
2021/05/24 11:49:12;;;;;;;1999.90;999.90;;;13.60;99.90;;;;;;5079199;28;20177;-82
2021/05/24 11:51:39;;;;;;;1999.90;999.90;;;13.70;99.90;;;;;;5079838;28;20173;-81
2021/05/24 11:54:20;;;;;;;1999.90;999.90;;;13.70;99.90;;;;;;5060990;28;20193;-81
2021/05/24 11:56:49;;;;;;;1999.90;999.90;;;13.70;99.90;;;;;;5079799;28;20184;-82
2021/05/24 11:59:17;;;;;;;1999.90;999.90;;;13.80;99.90;;;;;;5061496;28;20202;-81
2021/05/24 12:01:45;;;;;;;1999.90;999.90;;;13.80;99.90;;;;;;5061298;28;20232;-81
2021/05/24 12:04:13;;;;;;;1999.90;999.90;;;13.80;99.90;;;;;;5079407;28;20224;-81
2021/05/24 12:06:51;;;;;;;1999.90;999.90;;;13.70;99.90;;;;;;5070432;28;20236;-81
2021/05/24 12:09:40;;;;;;;1999.90;999.90;;;13.70;99.90;;;;;;5075983;28;20197;-81